METAR v bližini

 

LJMB - Maribor Edvarda Rusjana, Slovenia
Oddaljenost od postaje: SV 30,9km
Podatki zajeti: 18/07/2018 08:00
Jasno
Jasno
 Veter iz smeri spremenljiv
Veter: spremenljiv 2 km/h
Temperatura: 24°C
Rosišče: 10°C
Vlažnost: 41%
Tlak: 1013 hPa
Stanje: Jasno
Vidljivost: večja od 10 km
2018/07/18 06:00 LJMB 180600Z VRB01KT CAVOK 24/10 Q1013
LJLJ - Ljubljana Brnik, Slovenia
Oddaljenost od postaje: S 103km
Podatki zajeti: 18/07/2018 08:00
Rahlo oblačno
Rahlo oblačno
 Veter iz smeri spremenljiv
Veter: spremenljiv 4 km/h
Temperatura: 18°C
Rosišče: 14°C
Vlažnost: 78%
Tlak: 1015 hPa
Oblačnost: Rahlo oblačno
Vidljivost: 10 km
Podrobnosti o oblakih: Rahlo oblačno 2012 m
2018/07/18 06:00 LJLJ 180600Z VRB02KT 9999 FEW066 18/14 Q1015 NOSIG
 
LJPZ - Portorož, Slovenia
Oddaljenost od postaje: SSZ 224km
Podatki zajeti: 18/07/2018 08:00
Jasno
Jasno
 Veter iz smeri VJV
Veter: VJV 9 km/h
Temperatura: 22°C
Rosišče: 18°C
Vlažnost: 78%
Tlak: 1013 hPa
Stanje: Jasno
Vidljivost: večja od 10 km
2018/07/18 06:00 LJPZ 180600Z 12005KT CAVOK 22/18 Q1013
LJCE - Cerklje, Slovenia
Oddaljenost od postaje: VSV 83,9km
Podatki zajeti: 18/07/2018 08:00
Jasno
Jasno
 Veter iz smeri Z
Veter: Z 11 km/h
Temperatura: 20°C
Rosišče: 16°C
Vlažnost: 78%
Tlak: 1013 hPa
Stanje: Jasno
Vidljivost: večja od 10 km
2018/07/18 06:00 LJCE 180600Z 27006KT 240V320 CAVOK 20/16 Q1013
 
LOWG - Graz, Austria
Oddaljenost od postaje: SSZ 99,6km
Podatki zajeti: 18/07/2018 08:20
Rahlo oblačno
Rahlo oblačno
 Veter iz smeri spremenljiv
Veter: spremenljiv 4 km/h
Temperatura: 20°C
Rosišče: 14°C
Vlažnost: 69%
Tlak: 1013 hPa
Oblačnost: Rahlo oblačno
Vidljivost: 10 km
Podrobnosti o oblakih: Rahlo oblačno 1829 m
2018/07/18 06:20 LOWG 180620Z VRB02KT 9999 FEW060 20/14 Q1013 WS ALL RWY TEMPO FM0700 32015KT
LOWK - Klagenfurt, Austria
Oddaljenost od postaje: SZ 121km
Podatki zajeti: 18/07/2018 08:20
Jasno
Jasno
 Veter iz smeri SZ
Veter: SZ 9 km/h
Temperatura: 18°C
Rosišče: 12°C
Vlažnost: 68%
Tlak: 1016 hPa
Stanje: Jasno
Vidljivost: večja od 10 km
2018/07/18 06:20 LOWK 180620Z 32005KT CAVOK 18/12 Q1016 NOSIG
 
LDRI - Rijeka, Croatia
Oddaljenost od postaje: SZ 243km
Podatki zajeti: 18/07/2018 08:00
Jasno
Jasno
 Veter iz smeri spremenljiv
Veter: spremenljiv 2 km/h
Temperatura: 24°C
Rosišče: 17°C
Vlažnost: 65%
Tlak: 1013 hPa
Stanje: Jasno
Vidljivost: večja od 10 km
2018/07/18 06:00 LDRI 180600Z VRB01KT CAVOK 24/17 Q1013
LIPQ - Ronchi, Italy
Oddaljenost od postaje: VJV 224km
Podatki zajeti: 18/07/2018 08:20
Jasno
Jasno
 Veter iz smeri spremenljiv
Veter: spremenljiv 4 km/h
Temperatura: 22°C
Rosišče: 18°C
Vlažnost: 78%
Tlak: 1013 hPa
Stanje: Jasno
Vidljivost: večja od 10 km
2018/07/18 06:20 LIPQ 180620Z VRB02KT CAVOK 22/18 Q1013
 
LDZA - Zagreb, Croatia
Oddaljenost od postaje: JJV 143km
Podatki zajeti: 18/07/2018 08:00
Jasno
Jasno
 Veter iz smeri ZJZ
Veter: ZJZ 11 km/h
Temperatura: 19°C
Rosišče: 16°C
Vlažnost: 83%
Tlak: 1012 hPa
Stanje: Jasno
Vidljivost: večja od 10 km
2018/07/18 06:00 LDZA 180600Z 25006KT CAVOK 19/16 Q1012 NOSIG
LIVT - Trieste, Italy
Oddaljenost od postaje: ZSZ 250km
Podatki zajeti: 18/07/2018 07:55
Jasno
Jasno
 Veter iz smeri SV
Veter: SV 2 km/h
Temperatura: 23°C
Rosišče: 19°C
Vlažnost: 78%
Tlak: 1012 hPa
Stanje: Jasno
Vidljivost: večja od 10 km
2018/07/18 05:55 LIVT 180555Z 04001KT CAVOK 23/19 Q1012 RMK SKC QUK 1 QUL 0 VIS MAR 20 KM VIS MIN 9999
 
LIPA - Aviano, Italy
Oddaljenost od postaje: S 310km
Podatki zajeti: 18/07/2018 07:55
Rahlo oblačno
Rahlo oblačno
 Veter iz smeri S
Veter: S 6 km/h
Temperatura: 23°C
Rosišče: 19°C
Vlažnost: 78%
Tlak: 1013 hPa
Oblačnost: Rahlo oblačno
Vidljivost: 10 km
Podrobnosti o oblakih: Rahlo oblačno 2438 m
2018/07/18 05:55 LIPA 180555Z 36003KT 9999 FEW080 23/19 Q1013 RMK FEW VIS MIN 9999 WIND THR05 00000KT WIND THR23 00000KT A2994 BLU
LDPL - Pula, Croatia
Oddaljenost od postaje: SSV 304km
Podatki zajeti: 18/07/2018 08:00
Jasno
Jasno
 Veter iz smeri spremenljiv
Veter: spremenljiv 4 km/h
Temperatura: 25°C
Rosišče: 18°C
Vlažnost: 65%
Tlak: 1013 hPa
Stanje: Jasno
Vidljivost: večja od 10 km
2018/07/18 06:00 LDPL 180600Z VRB02KT CAVOK 25/18 Q1013 NOSIG